sensor_id;sensor_type;location;lat;lon;timestamp;temperature;humidity
25440;DHT22;13365;52.208;5.488;2023-03-21T00:00:42;15.40;99.90
25440;DHT22;13365;52.208;5.488;2023-03-21T00:03:08;15.40;99.90
25440;DHT22;13365;52.208;5.488;2023-03-21T00:05:33;15.50;99.90
25440;DHT22;13365;52.208;5.488;2023-03-21T00:07:59;15.60;99.90
25440;DHT22;13365;52.208;5.488;2023-03-21T00:10:25;15.50;99.90
25440;DHT22;13365;52.208;5.488;2023-03-21T00:12:50;15.40;99.90
25440;DHT22;13365;52.208;5.488;2023-03-21T00:15:23;15.30;99.90
25440;DHT22;13365;52.208;5.488;2023-03-21T00:17:52;15.30;99.90
25440;DHT22;13365;52.208;5.488;2023-03-21T00:20:18;15.20;99.90
25440;DHT22;13365;52.208;5.488;2023-03-21T00:22:45;15.20;99.90
25440;DHT22;13365;52.208;5.488;2023-03-21T00:25:10;15.10;99.90
25440;DHT22;13365;52.208;5.488;2023-03-21T00:27:36;15.00;99.90
25440;DHT22;13365;52.208;5.488;2023-03-21T00:30:03;15.20;99.90
25440;DHT22;13365;52.208;5.488;2023-03-21T00:32:29;15.20;99.90
25440;DHT22;13365;52.208;5.488;2023-03-21T00:34:54;15.10;99.90
25440;DHT22;13365;52.208;5.488;2023-03-21T00:37:20;15.10;99.90
25440;DHT22;13365;52.208;5.488;2023-03-21T00:39:47;15.00;99.90
25440;DHT22;13365;52.208;5.488;2023-03-21T00:42:16;15.00;99.90
25440;DHT22;13365;52.208;5.488;2023-03-21T00:44:42;15.00;99.90
25440;DHT22;13365;52.208;5.488;2023-03-21T00:47:10;14.90;99.90
25440;DHT22;13365;52.208;5.488;2023-03-21T00:49:36;14.90;99.90
25440;DHT22;13365;52.208;5.488;2023-03-21T00:52:07;15.10;99.90
25440;DHT22;13365;52.208;5.488;2023-03-21T00:54:35;15.10;99.90
25440;DHT22;13365;52.208;5.488;2023-03-21T00:57:02;15.20;99.90
25440;DHT22;13365;52.208;5.488;2023-03-21T00:59:28;15.20;99.90
25440;DHT22;13365;52.208;5.488;2023-03-21T01:01:54;15.00;99.90
25440;DHT22;13365;52.208;5.488;2023-03-21T01:04:20;14.90;99.90
25440;DHT22;13365;52.208;5.488;2023-03-21T01:06:52;15.00;99.90
25440;DHT22;13365;52.208;5.488;2023-03-21T01:09:20;15.10;99.90
25440;DHT22;13365;52.208;5.488;2023-03-21T01:11:46;15.20;99.90
25440;DHT22;13365;52.208;5.488;2023-03-21T01:14:14;15.20;99.90
25440;DHT22;13365;52.208;5.488;2023-03-21T01:16:40;15.00;99.90
25440;DHT22;13365;52.208;5.488;2023-03-21T01:19:07;14.90;99.90
25440;DHT22;13365;52.208;5.488;2023-03-21T01:21:33;15.10;99.90
25440;DHT22;13365;52.208;5.488;2023-03-21T01:23:59;15.30;99.90
25440;DHT22;13365;52.208;5.488;2023-03-21T01:26:26;15.30;99.90
25440;DHT22;13365;52.208;5.488;2023-03-21T01:28:51;15.40;99.90
25440;DHT22;13365;52.208;5.488;2023-03-21T01:31:17;15.40;99.90
25440;DHT22;13365;52.208;5.488;2023-03-21T01:33:43;15.40;99.90
25440;DHT22;13365;52.208;5.488;2023-03-21T01:36:14;15.50;99.90
25440;DHT22;13365;52.208;5.488;2023-03-21T01:38:41;15.40;99.90
25440;DHT22;13365;52.208;5.488;2023-03-21T01:41:37;15.30;99.90
25440;DHT22;13365;52.208;5.488;2023-03-21T01:44:01;15.20;99.90
25440;DHT22;13365;52.208;5.488;2023-03-21T01:46:33;15.20;99.90
25440;DHT22;13365;52.208;5.488;2023-03-21T01:49:01;15.10;99.90
25440;DHT22;13365;52.208;5.488;2023-03-21T01:51:28;15.10;99.90
25440;DHT22;13365;52.208;5.488;2023-03-21T01:53:54;15.10;99.90
25440;DHT22;13365;52.208;5.488;2023-03-21T01:56:30;15.10;99.90
25440;DHT22;13365;52.208;5.488;2023-03-21T01:59:20;15.10;99.90
25440;DHT22;13365;52.208;5.488;2023-03-21T02:01:49;15.20;99.90
25440;DHT22;13365;52.208;5.488;2023-03-21T02:04:16;15.10;99.90
25440;DHT22;13365;52.208;5.488;2023-03-21T02:06:59;15.20;99.90
25440;DHT22;13365;52.208;5.488;2023-03-21T02:09:32;15.10;99.90
25440;DHT22;13365;52.208;5.488;2023-03-21T02:11:59;15.00;99.90
25440;DHT22;13365;52.208;5.488;2023-03-21T02:14:25;14.80;99.90
25440;DHT22;13365;52.208;5.488;2023-03-21T02:17:18;14.90;99.90
25440;DHT22;13365;52.208;5.488;2023-03-21T02:28:07;14.80;99.90
25440;DHT22;13365;52.208;5.488;2023-03-21T02:33:48;14.70;99.90
25440;DHT22;13365;52.208;5.488;2023-03-21T02:36:52;14.70;99.90
25440;DHT22;13365;52.208;5.488;2023-03-21T02:40:05;14.60;99.90
25440;DHT22;13365;52.208;5.488;2023-03-21T02:45:00;14.70;99.90
25440;DHT22;13365;52.208;5.488;2023-03-21T02:47:39;14.70;99.90
25440;DHT22;13365;52.208;5.488;2023-03-21T02:50:16;14.80;99.90
25440;DHT22;13365;52.208;5.488;2023-03-21T02:52:46;14.80;99.90
25440;DHT22;13365;52.208;5.488;2023-03-21T02:55:24;14.70;99.90
25440;DHT22;13365;52.208;5.488;2023-03-21T02:57:51;14.80;99.90
25440;DHT22;13365;52.208;5.488;2023-03-21T03:00:20;14.70;99.90
25440;DHT22;13365;52.208;5.488;2023-03-21T03:02:47;14.90;99.90
25440;DHT22;13365;52.208;5.488;2023-03-21T03:05:20;14.90;99.90
25440;DHT22;13365;52.208;5.488;2023-03-21T03:11:11;14.80;99.90
25440;DHT22;13365;52.208;5.488;2023-03-21T03:16:56;14.80;99.90
25440;DHT22;13365;52.208;5.488;2023-03-21T03:19:29;14.80;99.90
25440;DHT22;13365;52.208;5.488;2023-03-21T03:22:00;15.00;99.90
25440;DHT22;13365;52.208;5.488;2023-03-21T03:24:38;14.90;99.90
25440;DHT22;13365;52.208;5.488;2023-03-21T03:27:15;14.80;99.90
25440;DHT22;13365;52.208;5.488;2023-03-21T03:29:44;14.80;99.90
25440;DHT22;13365;52.208;5.488;2023-03-21T03:32:16;14.80;99.90
25440;DHT22;13365;52.208;5.488;2023-03-21T03:34:47;14.80;99.90
25440;DHT22;13365;52.208;5.488;2023-03-21T03:37:26;14.70;99.90
25440;DHT22;13365;52.208;5.488;2023-03-21T03:42:24;14.70;99.90
25440;DHT22;13365;52.208;5.488;2023-03-21T03:44:52;14.70;99.90
25440;DHT22;13365;52.208;5.488;2023-03-21T03:47:44;14.50;99.90
25440;DHT22;13365;52.208;5.488;2023-03-21T03:50:20;14.70;99.90
25440;DHT22;13365;52.208;5.488;2023-03-21T03:52:54;14.70;99.90
25440;DHT22;13365;52.208;5.488;2023-03-21T03:55:22;14.60;99.90
25440;DHT22;13365;52.208;5.488;2023-03-21T03:57:52;14.50;99.90
25440;DHT22;13365;52.208;5.488;2023-03-21T04:00:18;14.60;99.90
25440;DHT22;13365;52.208;5.488;2023-03-21T04:02:44;14.70;99.90
25440;DHT22;13365;52.208;5.488;2023-03-21T04:05:10;14.70;99.90
25440;DHT22;13365;52.208;5.488;2023-03-21T04:07:35;14.80;99.90
25440;DHT22;13365;52.208;5.488;2023-03-21T04:10:01;14.80;99.90
25440;DHT22;13365;52.208;5.488;2023-03-21T04:12:27;14.80;99.90
25440;DHT22;13365;52.208;5.488;2023-03-21T04:14:52;14.70;99.90
25440;DHT22;13365;52.208;5.488;2023-03-21T04:17:18;14.60;99.90
25440;DHT22;13365;52.208;5.488;2023-03-21T04:19:44;14.40;99.90
25440;DHT22;13365;52.208;5.488;2023-03-21T04:22:11;14.40;99.90
25440;DHT22;13365;52.208;5.488;2023-03-21T04:24:38;14.50;99.90
25440;DHT22;13365;52.208;5.488;2023-03-21T04:27:04;14.50;99.90
25440;DHT22;13365;52.208;5.488;2023-03-21T04:29:30;14.60;99.90
25440;DHT22;13365;52.208;5.488;2023-03-21T04:31:56;14.60;99.90
25440;DHT22;13365;52.208;5.488;2023-03-21T04:34:22;14.50;99.90
25440;DHT22;13365;52.208;5.488;2023-03-21T04:36:48;14.50;99.90
25440;DHT22;13365;52.208;5.488;2023-03-21T04:39:15;14.60;99.90
25440;DHT22;13365;52.208;5.488;2023-03-21T04:41:43;14.50;99.90
25440;DHT22;13365;52.208;5.488;2023-03-21T04:44:10;14.40;99.90
25440;DHT22;13365;52.208;5.488;2023-03-21T04:46:37;14.60;99.90
25440;DHT22;13365;52.208;5.488;2023-03-21T04:49:03;14.60;99.90
25440;DHT22;13365;52.208;5.488;2023-03-21T04:51:29;14.50;99.90
25440;DHT22;13365;52.208;5.488;2023-03-21T04:53:55;14.70;99.90
25440;DHT22;13365;52.208;5.488;2023-03-21T04:56:25;14.60;99.90
25440;DHT22;13365;52.208;5.488;2023-03-21T04:59:00;14.70;99.90
25440;DHT22;13365;52.208;5.488;2023-03-21T05:01:26;14.60;99.90
25440;DHT22;13365;52.208;5.488;2023-03-21T05:03:59;14.50;99.90
25440;DHT22;13365;52.208;5.488;2023-03-21T05:06:25;14.50;99.90
25440;DHT22;13365;52.208;5.488;2023-03-21T05:08:53;14.50;99.90
25440;DHT22;13365;52.208;5.488;2023-03-21T05:11:21;14.70;99.90
25440;DHT22;13365;52.208;5.488;2023-03-21T05:13:46;14.80;99.90
25440;DHT22;13365;52.208;5.488;2023-03-21T05:16:12;14.80;99.90
25440;DHT22;13365;52.208;5.488;2023-03-21T05:18:37;14.60;99.90
25440;DHT22;13365;52.208;5.488;2023-03-21T05:21:04;14.40;99.90
25440;DHT22;13365;52.208;5.488;2023-03-21T05:23:32;14.40;99.90
25440;DHT22;13365;52.208;5.488;2023-03-21T05:26:08;14.40;99.90
25440;DHT22;13365;52.208;5.488;2023-03-21T05:28:34;14.40;99.90
25440;DHT22;13365;52.208;5.488;2023-03-21T05:31:05;14.30;99.90
25440;DHT22;13365;52.208;5.488;2023-03-21T05:33:31;14.30;99.90
25440;DHT22;13365;52.208;5.488;2023-03-21T05:35:56;14.30;99.90
25440;DHT22;13365;52.208;5.488;2023-03-21T05:38:22;14.40;99.90
25440;DHT22;13365;52.208;5.488;2023-03-21T05:40:49;14.30;99.90
25440;DHT22;13365;52.208;5.488;2023-03-21T05:43:15;14.30;99.90
25440;DHT22;13365;52.208;5.488;2023-03-21T05:45:41;14.10;99.90
25440;DHT22;13365;52.208;5.488;2023-03-21T05:48:07;14.00;99.90
25440;DHT22;13365;52.208;5.488;2023-03-21T05:50:33;14.00;99.90
25440;DHT22;13365;52.208;5.488;2023-03-21T05:52:58;14.20;99.90
25440;DHT22;13365;52.208;5.488;2023-03-21T05:55:24;14.30;99.90
25440;DHT22;13365;52.208;5.488;2023-03-21T05:57:49;14.50;99.90
25440;DHT22;13365;52.208;5.488;2023-03-21T06:00:15;14.60;99.90
25440;DHT22;13365;52.208;5.488;2023-03-21T06:02:41;14.70;99.90
25440;DHT22;13365;52.208;5.488;2023-03-21T06:05:07;14.70;99.90
25440;DHT22;13365;52.208;5.488;2023-03-21T06:07:33;14.70;99.90
25440;DHT22;13365;52.208;5.488;2023-03-21T06:09:59;14.90;99.90
25440;DHT22;13365;52.208;5.488;2023-03-21T06:12:25;14.90;99.90
25440;DHT22;13365;52.208;5.488;2023-03-21T06:14:50;15.00;99.90
25440;DHT22;13365;52.208;5.488;2023-03-21T06:17:16;15.00;99.90
25440;DHT22;13365;52.208;5.488;2023-03-21T06:19:41;15.00;99.90
25440;DHT22;13365;52.208;5.488;2023-03-21T06:22:07;15.00;99.90
25440;DHT22;13365;52.208;5.488;2023-03-21T06:24:32;15.10;99.90
25440;DHT22;13365;52.208;5.488;2023-03-21T06:26:58;15.20;99.90
25440;DHT22;13365;52.208;5.488;2023-03-21T06:29:23;15.20;99.90
25440;DHT22;13365;52.208;5.488;2023-03-21T06:31:49;15.10;99.90
25440;DHT22;13365;52.208;5.488;2023-03-21T06:34:15;15.00;99.90
25440;DHT22;13365;52.208;5.488;2023-03-21T06:36:40;15.00;99.90
25440;DHT22;13365;52.208;5.488;2023-03-21T06:39:09;15.00;99.90
25440;DHT22;13365;52.208;5.488;2023-03-21T06:41:35;15.20;99.90
25440;DHT22;13365;52.208;5.488;2023-03-21T06:44:01;15.00;99.90
25440;DHT22;13365;52.208;5.488;2023-03-21T06:46:26;15.10;99.90
25440;DHT22;13365;52.208;5.488;2023-03-21T06:48:52;15.20;99.90
25440;DHT22;13365;52.208;5.488;2023-03-21T06:51:17;15.10;99.90
25440;DHT22;13365;52.208;5.488;2023-03-21T06:53:43;15.00;99.90
25440;DHT22;13365;52.208;5.488;2023-03-21T06:56:09;15.10;99.90
25440;DHT22;13365;52.208;5.488;2023-03-21T06:58:35;15.00;99.90
25440;DHT22;13365;52.208;5.488;2023-03-21T07:01:01;14.90;99.90
25440;DHT22;13365;52.208;5.488;2023-03-21T07:03:27;14.90;99.90
25440;DHT22;13365;52.208;5.488;2023-03-21T07:05:54;14.80;99.90
25440;DHT22;13365;52.208;5.488;2023-03-21T07:08:20;14.80;99.90
25440;DHT22;13365;52.208;5.488;2023-03-21T07:10:46;14.90;99.90
25440;DHT22;13365;52.208;5.488;2023-03-21T07:13:12;14.80;99.90
25440;DHT22;13365;52.208;5.488;2023-03-21T07:15:38;14.80;99.90
25440;DHT22;13365;52.208;5.488;2023-03-21T07:18:07;14.80;99.90
25440;DHT22;13365;52.208;5.488;2023-03-21T07:20:34;14.90;99.90
25440;DHT22;13365;52.208;5.488;2023-03-21T07:23:00;14.90;99.90
25440;DHT22;13365;52.208;5.488;2023-03-21T07:25:26;14.90;99.90
25440;DHT22;13365;52.208;5.488;2023-03-21T07:27:52;14.80;99.90
25440;DHT22;13365;52.208;5.488;2023-03-21T07:30:18;14.80;99.90
25440;DHT22;13365;52.208;5.488;2023-03-21T07:32:44;14.80;99.90
25440;DHT22;13365;52.208;5.488;2023-03-21T07:35:14;14.70;99.90
25440;DHT22;13365;52.208;5.488;2023-03-21T07:37:40;14.70;99.90
25440;DHT22;13365;52.208;5.488;2023-03-21T07:40:07;14.80;99.90
25440;DHT22;13365;52.208;5.488;2023-03-21T07:42:36;14.80;99.90
25440;DHT22;13365;52.208;5.488;2023-03-21T07:45:02;14.80;99.90
25440;DHT22;13365;52.208;5.488;2023-03-21T07:47:29;15.00;99.90
25440;DHT22;13365;52.208;5.488;2023-03-21T07:49:55;15.00;99.90
25440;DHT22;13365;52.208;5.488;2023-03-21T07:52:20;14.90;99.90
25440;DHT22;13365;52.208;5.488;2023-03-21T07:54:46;14.80;99.90
25440;DHT22;13365;52.208;5.488;2023-03-21T07:57:11;14.70;99.90
25440;DHT22;13365;52.208;5.488;2023-03-21T07:59:37;14.70;99.90
25440;DHT22;13365;52.208;5.488;2023-03-21T08:02:02;14.60;99.90
25440;DHT22;13365;52.208;5.488;2023-03-21T08:04:28;14.60;99.90
25440;DHT22;13365;52.208;5.488;2023-03-21T08:06:53;14.50;99.90
25440;DHT22;13365;52.208;5.488;2023-03-21T08:09:19;14.50;99.90
25440;DHT22;13365;52.208;5.488;2023-03-21T08:11:44;14.70;99.90
25440;DHT22;13365;52.208;5.488;2023-03-21T08:14:10;14.90;99.90
25440;DHT22;13365;52.208;5.488;2023-03-21T08:16:35;14.90;99.90
25440;DHT22;13365;52.208;5.488;2023-03-21T08:19:01;15.10;99.90
25440;DHT22;13365;52.208;5.488;2023-03-21T08:21:27;15.20;99.90
25440;DHT22;13365;52.208;5.488;2023-03-21T08:23:52;15.30;99.90
25440;DHT22;13365;52.208;5.488;2023-03-21T08:26:18;15.30;99.90
25440;DHT22;13365;52.208;5.488;2023-03-21T08:28:44;15.40;99.90
25440;DHT22;13365;52.208;5.488;2023-03-21T08:31:11;15.30;99.90
25440;DHT22;13365;52.208;5.488;2023-03-21T08:33:36;15.30;99.90
25440;DHT22;13365;52.208;5.488;2023-03-21T08:36:03;15.30;99.90
25440;DHT22;13365;52.208;5.488;2023-03-21T08:38:29;15.20;99.90
25440;DHT22;13365;52.208;5.488;2023-03-21T08:41:00;15.40;99.90
25440;DHT22;13365;52.208;5.488;2023-03-21T08:43:27;15.40;99.90
25440;DHT22;13365;52.208;5.488;2023-03-21T08:45:53;15.50;99.90
25440;DHT22;13365;52.208;5.488;2023-03-21T08:48:18;15.50;99.90
25440;DHT22;13365;52.208;5.488;2023-03-21T08:50:44;15.40;99.90
25440;DHT22;13365;52.208;5.488;2023-03-21T08:53:09;15.20;99.90
25440;DHT22;13365;52.208;5.488;2023-03-21T08:55:35;15.30;99.90
25440;DHT22;13365;52.208;5.488;2023-03-21T08:58:02;15.20;99.90
25440;DHT22;13365;52.208;5.488;2023-03-21T09:00:28;15.20;99.90
25440;DHT22;13365;52.208;5.488;2023-03-21T09:02:53;15.20;99.90
25440;DHT22;13365;52.208;5.488;2023-03-21T09:05:19;15.40;99.90
25440;DHT22;13365;52.208;5.488;2023-03-21T09:07:46;15.30;99.90
25440;DHT22;13365;52.208;5.488;2023-03-21T09:10:18;15.20;99.90
25440;DHT22;13365;52.208;5.488;2023-03-21T09:12:44;15.20;99.90
25440;DHT22;13365;52.208;5.488;2023-03-21T09:15:10;15.30;99.90
25440;DHT22;13365;52.208;5.488;2023-03-21T09:17:37;15.30;99.90
25440;DHT22;13365;52.208;5.488;2023-03-21T09:20:10;15.30;99.90
25440;DHT22;13365;52.208;5.488;2023-03-21T09:22:47;15.20;99.90
25440;DHT22;13365;52.208;5.488;2023-03-21T09:25:14;15.20;99.90
25440;DHT22;13365;52.208;5.488;2023-03-21T09:27:40;15.20;99.90
25440;DHT22;13365;52.208;5.488;2023-03-21T09:30:07;15.40;99.90
25440;DHT22;13365;52.208;5.488;2023-03-21T09:32:35;15.40;99.90
25440;DHT22;13365;52.208;5.488;2023-03-21T09:35:01;15.40;99.90
25440;DHT22;13365;52.208;5.488;2023-03-21T09:37:26;15.60;99.90
25440;DHT22;13365;52.208;5.488;2023-03-21T09:39:52;15.60;99.90
25440;DHT22;13365;52.208;5.488;2023-03-21T09:42:37;15.60;99.90
25440;DHT22;13365;52.208;5.488;2023-03-21T09:45:19;15.60;99.90
25440;DHT22;13365;52.208;5.488;2023-03-21T09:47:47;15.70;99.90
25440;DHT22;13365;52.208;5.488;2023-03-21T09:50:29;15.50;99.90
25440;DHT22;13365;52.208;5.488;2023-03-21T09:53:08;15.60;99.90
25440;DHT22;13365;52.208;5.488;2023-03-21T09:55:38;15.80;99.90
25440;DHT22;13365;52.208;5.488;2023-03-21T09:58:23;15.80;99.90
25440;DHT22;13365;52.208;5.488;2023-03-21T10:01:24;15.70;99.90
25440;DHT22;13365;52.208;5.488;2023-03-21T10:03:55;15.60;99.90
25440;DHT22;13365;52.208;5.488;2023-03-21T10:06:23;15.80;99.90
25440;DHT22;13365;52.208;5.488;2023-03-21T10:09:00;15.90;99.90
25440;DHT22;13365;52.208;5.488;2023-03-21T10:16:43;16.00;99.90
25440;DHT22;13365;52.208;5.488;2023-03-21T10:19:12;16.10;99.90
25440;DHT22;13365;52.208;5.488;2023-03-21T10:21:43;16.00;99.90
25440;DHT22;13365;52.208;5.488;2023-03-21T10:24:16;16.00;99.90
25440;DHT22;13365;52.208;5.488;2023-03-21T10:26:44;16.00;99.90
25440;DHT22;13365;52.208;5.488;2023-03-21T10:29:13;16.10;99.90
25440;DHT22;13365;52.208;5.488;2023-03-21T10:31:41;16.10;99.90
25440;DHT22;13365;52.208;5.488;2023-03-21T10:34:30;16.10;99.90
25440;DHT22;13365;52.208;5.488;2023-03-21T10:36:58;16.00;99.90
25440;DHT22;13365;52.208;5.488;2023-03-21T10:39:35;16.00;99.90
25440;DHT22;13365;52.208;5.488;2023-03-21T10:42:01;16.00;99.90
25440;DHT22;13365;52.208;5.488;2023-03-21T10:44:31;15.80;99.90
25440;DHT22;13365;52.208;5.488;2023-03-21T10:47:05;15.90;99.90
25440;DHT22;13365;52.208;5.488;2023-03-21T10:49:32;16.10;99.90
25440;DHT22;13365;52.208;5.488;2023-03-21T10:52:01;16.20;99.90
25440;DHT22;13365;52.208;5.488;2023-03-21T10:54:32;16.10;99.90
25440;DHT22;13365;52.208;5.488;2023-03-21T10:57:07;16.10;99.90
25440;DHT22;13365;52.208;5.488;2023-03-21T11:02:06;16.10;99.90
25440;DHT22;13365;52.208;5.488;2023-03-21T11:04:35;16.20;99.90
25440;DHT22;13365;52.208;5.488;2023-03-21T11:07:04;16.30;99.90
25440;DHT22;13365;52.208;5.488;2023-03-21T11:09:56;16.60;99.90
25440;DHT22;13365;52.208;5.488;2023-03-21T11:12:32;16.80;99.80
25440;DHT22;13365;52.208;5.488;2023-03-21T11:17:39;16.70;99.60
25440;DHT22;13365;52.208;5.488;2023-03-21T11:20:06;16.70;99.90
25440;DHT22;13365;52.208;5.488;2023-03-21T11:22:40;16.60;99.60
25440;DHT22;13365;52.208;5.488;2023-03-21T11:25:09;16.60;99.70
25440;DHT22;13365;52.208;5.488;2023-03-21T11:27:51;16.70;99.90
25440;DHT22;13365;52.208;5.488;2023-03-21T11:30:23;16.90;99.90
25440;DHT22;13365;52.208;5.488;2023-03-21T11:32:57;16.90;99.10
25440;DHT22;13365;52.208;5.488;2023-03-21T11:35:37;16.90;99.70
25440;DHT22;13365;52.208;5.488;2023-03-21T11:38:04;17.00;99.80
25440;DHT22;13365;52.208;5.488;2023-03-21T11:40:36;17.20;99.40
25440;DHT22;13365;52.208;5.488;2023-03-21T11:43:25;17.30;99.50
25440;DHT22;13365;52.208;5.488;2023-03-21T11:45:59;17.60;99.60
25440;DHT22;13365;52.208;5.488;2023-03-21T11:48:26;18.00;99.10
25440;DHT22;13365;52.208;5.488;2023-03-21T11:51:06;18.30;98.90
25440;DHT22;13365;52.208;5.488;2023-03-21T11:56:27;18.70;97.10
25440;DHT22;13365;52.208;5.488;2023-03-21T12:01:53;18.60;95.90
25440;DHT22;13365;52.208;5.488;2023-03-21T12:07:28;18.40;97.20
25440;DHT22;13365;52.208;5.488;2023-03-21T12:15:23;18.20;96.60
25440;DHT22;13365;52.208;5.488;2023-03-21T12:20:52;17.70;96.10
25440;DHT22;13365;52.208;5.488;2023-03-21T12:34:43;18.00;96.00
25440;DHT22;13365;52.208;5.488;2023-03-21T12:40:38;18.00;97.20
25440;DHT22;13365;52.208;5.488;2023-03-21T12:43:16;18.00;96.90
25440;DHT22;13365;52.208;5.488;2023-03-21T12:45:47;18.20;96.80
25440;DHT22;13365;52.208;5.488;2023-03-21T12:48:21;18.10;96.10
25440;DHT22;13365;52.208;5.488;2023-03-21T12:50:50;18.40;96.90
25440;DHT22;13365;52.208;5.488;2023-03-21T12:56:10;18.60;95.80
25440;DHT22;13365;52.208;5.488;2023-03-21T12:58:45;18.60;96.30
25440;DHT22;13365;52.208;5.488;2023-03-21T13:01:14;18.80;95.80
25440;DHT22;13365;52.208;5.488;2023-03-21T13:03:41;18.90;95.60
25440;DHT22;13365;52.208;5.488;2023-03-21T13:06:13;19.30;95.40
25440;DHT22;13365;52.208;5.488;2023-03-21T13:08:53;19.40;94.60
25440;DHT22;13365;52.208;5.488;2023-03-21T13:11:24;19.50;94.10
25440;DHT22;13365;52.208;5.488;2023-03-21T13:14:14;19.60;94.20
25440;DHT22;13365;52.208;5.488;2023-03-21T13:16:57;19.80;93.40
25440;DHT22;13365;52.208;5.488;2023-03-21T13:19:40;19.80;92.40
25440;DHT22;13365;52.208;5.488;2023-03-21T13:24:48;19.60;91.30
25440;DHT22;13365;52.208;5.488;2023-03-21T13:27:24;19.20;91.40
25440;DHT22;13365;52.208;5.488;2023-03-21T13:29:51;19.10;92.90
25440;DHT22;13365;52.208;5.488;2023-03-21T13:32:27;19.20;92.90
25440;DHT22;13365;52.208;5.488;2023-03-21T13:37:48;19.20;92.30
25440;DHT22;13365;52.208;5.488;2023-03-21T13:40:44;19.10;91.60
25440;DHT22;13365;52.208;5.488;2023-03-21T13:46:09;19.10;90.30
25440;DHT22;13365;52.208;5.488;2023-03-21T13:51:44;19.20;90.80
25440;DHT22;13365;52.208;5.488;2023-03-21T14:02:28;20.50;90.40
25440;DHT22;13365;52.208;5.488;2023-03-21T14:05:01;20.50;86.20
25440;DHT22;13365;52.208;5.488;2023-03-21T14:07:32;20.20;87.60
25440;DHT22;13365;52.208;5.488;2023-03-21T14:10:01;20.10;87.00
25440;DHT22;13365;52.208;5.488;2023-03-21T14:12:39;20.00;87.80
25440;DHT22;13365;52.208;5.488;2023-03-21T14:15:14;20.00;88.70
25440;DHT22;13365;52.208;5.488;2023-03-21T14:17:53;19.90;88.00
25440;DHT22;13365;52.208;5.488;2023-03-21T14:20:26;19.50;89.30
25440;DHT22;13365;52.208;5.488;2023-03-21T14:22:52;19.40;89.00
25440;DHT22;13365;52.208;5.488;2023-03-21T14:25:21;19.30;89.40
25440;DHT22;13365;52.208;5.488;2023-03-21T14:27:54;19.00;89.20
25440;DHT22;13365;52.208;5.488;2023-03-21T14:30:24;18.80;90.50
25440;DHT22;13365;52.208;5.488;2023-03-21T14:32:54;18.70;90.60
25440;DHT22;13365;52.208;5.488;2023-03-21T14:35:21;18.70;90.20
25440;DHT22;13365;52.208;5.488;2023-03-21T14:37:47;18.60;90.10
25440;DHT22;13365;52.208;5.488;2023-03-21T14:40:23;18.40;90.40
25440;DHT22;13365;52.208;5.488;2023-03-21T14:42:50;18.60;91.30
25440;DHT22;13365;52.208;5.488;2023-03-21T14:48:07;18.10;90.70
25440;DHT22;13365;52.208;5.488;2023-03-21T14:50:46;18.00;91.60
25440;DHT22;13365;52.208;5.488;2023-03-21T14:53:30;18.10;91.30
25440;DHT22;13365;52.208;5.488;2023-03-21T14:58:27;17.80;91.90
25440;DHT22;13365;52.208;5.488;2023-03-21T15:00:56;17.80;91.80
25440;DHT22;13365;52.208;5.488;2023-03-21T15:03:23;17.90;91.90
25440;DHT22;13365;52.208;5.488;2023-03-21T15:05:51;17.80;91.80
25440;DHT22;13365;52.208;5.488;2023-03-21T15:08:19;17.90;91.90
25440;DHT22;13365;52.208;5.488;2023-03-21T15:11:03;17.90;91.80
25440;DHT22;13365;52.208;5.488;2023-03-21T15:13:32;17.80;92.10
25440;DHT22;13365;52.208;5.488;2023-03-21T15:15:59;17.70;92.40
25440;DHT22;13365;52.208;5.488;2023-03-21T15:18:30;17.80;92.50
25440;DHT22;13365;52.208;5.488;2023-03-21T15:21:03;17.90;92.50
25440;DHT22;13365;52.208;5.488;2023-03-21T15:23:39;18.20;92.20
25440;DHT22;13365;52.208;5.488;2023-03-21T15:26:06;18.20;91.70
25440;DHT22;13365;52.208;5.488;2023-03-21T15:28:35;18.20;91.80
25440;DHT22;13365;52.208;5.488;2023-03-21T15:31:01;18.40;92.40
25440;DHT22;13365;52.208;5.488;2023-03-21T15:33:26;18.30;91.80
25440;DHT22;13365;52.208;5.488;2023-03-21T15:35:55;18.10;92.10
25440;DHT22;13365;52.208;5.488;2023-03-21T15:41:22;18.10;92.40
25440;DHT22;13365;52.208;5.488;2023-03-21T15:54:30;17.70;93.00
25440;DHT22;13365;52.208;5.488;2023-03-21T15:57:02;17.50;93.10
25440;DHT22;13365;52.208;5.488;2023-03-21T15:59:37;17.50;93.80
25440;DHT22;13365;52.208;5.488;2023-03-21T16:02:19;17.70;93.50
25440;DHT22;13365;52.208;5.488;2023-03-21T16:04:56;17.90;93.30
25440;DHT22;13365;52.208;5.488;2023-03-21T16:07:23;17.60;92.90
25440;DHT22;13365;52.208;5.488;2023-03-21T16:09:48;17.70;93.40
25440;DHT22;13365;52.208;5.488;2023-03-21T16:12:14;17.90;93.20
25440;DHT22;13365;52.208;5.488;2023-03-21T16:14:40;18.10;93.10
25440;DHT22;13365;52.208;5.488;2023-03-21T16:17:30;17.90;92.80
25440;DHT22;13365;52.208;5.488;2023-03-21T16:19:58;18.00;93.00
25440;DHT22;13365;52.208;5.488;2023-03-21T16:22:23;17.70;93.20
25440;DHT22;13365;52.208;5.488;2023-03-21T16:24:49;17.50;94.00
25440;DHT22;13365;52.208;5.488;2023-03-21T16:27:16;17.30;94.40
25440;DHT22;13365;52.208;5.488;2023-03-21T16:29:43;17.10;94.90
25440;DHT22;13365;52.208;5.488;2023-03-21T16:32:15;16.70;96.20
25440;DHT22;13365;52.208;5.488;2023-03-21T16:34:40;16.50;96.70
25440;DHT22;13365;52.208;5.488;2023-03-21T16:37:09;16.30;97.30
25440;DHT22;13365;52.208;5.488;2023-03-21T16:39:35;16.30;98.10
25440;DHT22;13365;52.208;5.488;2023-03-21T16:42:01;16.50;98.80
25440;DHT22;13365;52.208;5.488;2023-03-21T16:44:26;16.20;98.90
25440;DHT22;13365;52.208;5.488;2023-03-21T16:46:52;16.20;99.40
25440;DHT22;13365;52.208;5.488;2023-03-21T16:49:25;16.60;99.40
25440;DHT22;13365;52.208;5.488;2023-03-21T16:51:53;16.40;99.40
25440;DHT22;13365;52.208;5.488;2023-03-21T16:54:19;16.20;99.60
25440;DHT22;13365;52.208;5.488;2023-03-21T16:56:50;16.30;99.90
25440;DHT22;13365;52.208;5.488;2023-03-21T16:59:16;16.60;99.90
25440;DHT22;13365;52.208;5.488;2023-03-21T17:01:42;16.60;99.40
25440;DHT22;13365;52.208;5.488;2023-03-21T17:04:10;16.60;99.40
25440;DHT22;13365;52.208;5.488;2023-03-21T17:06:49;16.50;99.40
25440;DHT22;13365;52.208;5.488;2023-03-21T17:09:17;16.40;99.80
25440;DHT22;13365;52.208;5.488;2023-03-21T17:11:43;16.40;99.90
25440;DHT22;13365;52.208;5.488;2023-03-21T17:14:10;16.30;99.90
25440;DHT22;13365;52.208;5.488;2023-03-21T17:16:36;16.40;99.90
25440;DHT22;13365;52.208;5.488;2023-03-21T17:19:11;16.40;99.90
25440;DHT22;13365;52.208;5.488;2023-03-21T17:21:36;16.40;99.90
25440;DHT22;13365;52.208;5.488;2023-03-21T17:24:02;16.30;99.90
25440;DHT22;13365;52.208;5.488;2023-03-21T17:26:28;16.30;99.90
25440;DHT22;13365;52.208;5.488;2023-03-21T17:28:55;16.40;99.90
25440;DHT22;13365;52.208;5.488;2023-03-21T17:31:25;16.40;99.50